Time;durP1;ratioP1;P1;durP2;ratioP2;P2;SDS_P1;SDS_P2;PMS_P1;PMS_P2;Temp;Humidity;BMP_temperature;BMP_pressure;BME280_temperature;BME280_humidity;BME280_pressure;Samples;Min_cycle;Max_cycle;Signal;HPM_P1;HPM_P2
2024/04/15 00:00:59;;;;;;;;;;;;;;;;;;109473;1250;60112;-80
2024/04/15 00:03:45;;;;;;;;;;;;;;;;;;109484;1250;64618;-80
2024/04/15 00:06:11;;;;;;;;;;;;;;;;;;109529;1250;59807;-80
2024/04/15 00:08:38;;;;;;;;;;;;;;;;;;109498;1250;60118;-80
2024/04/15 00:11:04;;;;;;;;;;;;;;;;;;109598;1250;59815;-80
2024/04/15 00:13:30;;;;;;;;;;;;;;;;;;109565;1251;60292;-80
2024/04/15 00:15:56;;;;;;;;;;;;;;;;;;109613;1250;59933;-80
2024/04/15 00:18:23;;;;;;;;;;;;;;;;;;109532;1250;60390;-80
2024/04/15 00:20:49;;;;;;;;;;;;;;;;;;109497;1250;59802;-81
2024/04/15 00:23:15;;;;;;;;;;;;;;;;;;109450;1250;59834;-80
2024/04/15 00:25:41;;;;;;;;;;;;;;;;;;109348;1251;59806;-80
2024/04/15 00:28:07;;;;;;;;;;;;;;;;;;109344;1252;60498;-80
2024/04/15 00:30:34;;;;;;;;;;;;;;;;;;109273;1253;60454;-80
2024/04/15 00:33:00;;;;;;;;;;;;;;;;;;109344;1251;60014;-81
2024/04/15 00:35:27;;;;;;;;;;;;;;;;;;109351;1251;60005;-81
2024/04/15 00:37:54;;;;;;;;;;;;;;;;;;109335;1252;60768;-81
2024/04/15 00:40:20;;;;;;;;;;;;;;;;;;109369;1252;60391;-79
2024/04/15 00:42:46;;;;;;;;;;;;;;;;;;109362;1252;59944;-81
2024/04/15 00:45:12;;;;;;;;;;;;;;;;;;109323;1251;60525;-81
2024/04/15 00:47:39;;;;;;;;;;;;;;;;;;109254;1251;60056;-80
2024/04/15 00:50:05;;;;;;;;;;;;;;;;;;109403;1251;59784;-80
2024/04/15 00:52:32;;;;;;;;;;;;;;;;;;109340;1252;59834;-81
2024/04/15 00:54:58;;;;;;;;;;;;;;;;;;109322;1252;60259;-80
2024/04/15 00:57:24;;;;;;;;;;;;;;;;;;109422;1250;59855;-79
2024/04/15 00:59:50;;;;;;;;;;;;;;;;;;109479;1250;59962;-81
2024/04/15 01:02:16;;;;;;;;;;;;;;;;;;109461;1250;59786;-80
2024/04/15 01:04:42;;;;;;;;;;;;;;;;;;109484;1250;59733;-80
2024/04/15 01:07:09;;;;;;;;;;;;;;;;;;109453;1250;60184;-81
2024/04/15 01:09:35;;;;;;;;;;;;;;;;;;109473;1250;60487;-81
2024/04/15 01:12:01;;;;;;;;;;;;;;;;;;109491;1251;60280;-80
2024/04/15 01:14:28;;;;;;;;;;;;;;;;;;109489;1250;60486;-80
2024/04/15 01:16:54;;;;;;;;;;;;;;;;;;109443;1250;59805;-80
2024/04/15 01:19:20;;;;;;;;;;;;;;;;;;109473;1251;60427;-80
2024/04/15 01:21:46;;;;;;;;;;;;;;;;;;109452;1250;60437;-81
2024/04/15 01:24:13;;;;;;;;;;;;;;;;;;109317;1253;60021;-80
2024/04/15 01:26:39;;;;;;;;;;;;;;;;;;109274;1253;60500;-80
2024/04/15 01:29:05;;;;;;;;;;;;;;;;;;109386;1251;60013;-80
2024/04/15 01:31:31;;;;;;;;;;;;;;;;;;109364;1251;60066;-80
2024/04/15 01:33:58;;;;;;;;;;;;;;;;;;109247;1253;60526;-80
2024/04/15 01:36:24;;;;;;;;;;;;;;;;;;109373;1251;59875;-79
2024/04/15 01:38:50;;;;;;;;;;;;;;;;;;109334;1251;60396;-81
2024/04/15 01:41:16;;;;;;;;;;;;;;;;;;109360;1251;60570;-80
2024/04/15 01:43:43;;;;;;;;;;;;;;;;;;109278;1253;60215;-80
2024/04/15 01:46:09;;;;;;;;;;;;;;;;;;109336;1251;59755;-80
2024/04/15 01:48:35;;;;;;;;;;;;;;;;;;109330;1251;60377;-79
2024/04/15 01:51:01;;;;;;;;;;;;;;;;;;109346;1251;60238;-81
2024/04/15 01:53:27;;;;;;;;;;;;;;;;;;109365;1251;59934;-81
2024/04/15 01:55:54;;;;;;;;;;;;;;;;;;109347;1251;60198;-81
2024/04/15 01:58:20;;;;;;;;;;;;;;;;;;109465;1250;59681;-80
2024/04/15 02:00:46;;;;;;;;;;;;;;;;;;109452;1250;59815;-79
2024/04/15 02:03:12;;;;;;;;;;;;;;;;;;109495;1250;60087;-80
2024/04/15 02:05:38;;;;;;;;;;;;;;;;;;109464;1251;60507;-79
2024/04/15 02:08:05;;;;;;;;;;;;;;;;;;109441;1251;60356;-79
2024/04/15 02:10:31;;;;;;;;;;;;;;;;;;109472;1250;60506;-79
2024/04/15 02:12:57;;;;;;;;;;;;;;;;;;109426;1250;59887;-81
2024/04/15 02:15:23;;;;;;;;;;;;;;;;;;109426;1250;59861;-80
2024/04/15 02:17:49;;;;;;;;;;;;;;;;;;109450;1250;60146;-79
2024/04/15 02:20:16;;;;;;;;;;;;;;;;;;109501;1250;59823;-79
2024/04/15 02:22:42;;;;;;;;;;;;;;;;;;109460;1250;60379;-79
2024/04/15 02:25:08;;;;;;;;;;;;;;;;;;109352;1252;60085;-79
2024/04/15 02:27:35;;;;;;;;;;;;;;;;;;109336;1252;60101;-79
2024/04/15 02:30:02;;;;;;;;;;;;;;;;;;109319;1251;60526;-80
2024/04/15 02:32:28;;;;;;;;;;;;;;;;;;109383;1253;60564;-80
2024/04/15 02:34:54;;;;;;;;;;;;;;;;;;109236;1253;60531;-80
2024/04/15 02:37:21;;;;;;;;;;;;;;;;;;109345;1251;60060;-80
2024/04/15 02:39:47;;;;;;;;;;;;;;;;;;109312;1252;60446;-80
2024/04/15 02:42:13;;;;;;;;;;;;;;;;;;109350;1251;60278;-79
2024/04/15 02:44:39;;;;;;;;;;;;;;;;;;109328;1252;60548;-80
2024/04/15 02:47:05;;;;;;;;;;;;;;;;;;109395;1252;60169;-79
2024/04/15 02:49:31;;;;;;;;;;;;;;;;;;109322;1252;59824;-80
2024/04/15 02:51:58;;;;;;;;;;;;;;;;;;109324;1251;60194;-79
2024/04/15 02:54:24;;;;;;;;;;;;;;;;;;109339;1252;59891;-80
2024/04/15 02:56:50;;;;;;;;;;;;;;;;;;109382;1251;60030;-80
2024/04/15 02:59:16;;;;;;;;;;;;;;;;;;109493;1251;60533;-80
2024/04/15 03:01:43;;;;;;;;;;;;;;;;;;109457;1250;60327;-80
2024/04/15 03:04:09;;;;;;;;;;;;;;;;;;109426;1251;59814;-79
2024/04/15 03:06:35;;;;;;;;;;;;;;;;;;109487;1251;60014;-80
2024/04/15 03:09:01;;;;;;;;;;;;;;;;;;109459;1250;59884;-80
2024/04/15 03:11:27;;;;;;;;;;;;;;;;;;109470;1250;60362;-79
2024/04/15 03:13:53;;;;;;;;;;;;;;;;;;109430;1251;60674;-80
2024/04/15 03:16:20;;;;;;;;;;;;;;;;;;109479;1250;60417;-80
2024/04/15 03:18:46;;;;;;;;;;;;;;;;;;109565;1251;60432;-79
2024/04/15 03:21:12;;;;;;;;;;;;;;;;;;109392;1251;59808;-80
2024/04/15 03:23:38;;;;;;;;;;;;;;;;;;109416;1250;59874;-79
2024/04/15 03:26:04;;;;;;;;;;;;;;;;;;109367;1252;60155;-79
2024/04/15 03:28:30;;;;;;;;;;;;;;;;;;109337;1252;59819;-79
2024/04/15 03:30:57;;;;;;;;;;;;;;;;;;109350;1253;60352;-80
2024/04/15 03:33:23;;;;;;;;;;;;;;;;;;109332;1251;60519;-79
2024/04/15 03:35:49;;;;;;;;;;;;;;;;;;109314;1253;60273;-80
2024/04/15 03:38:15;;;;;;;;;;;;;;;;;;109345;1251;60036;-79
2024/04/15 03:40:41;;;;;;;;;;;;;;;;;;109359;1252;59839;-80
2024/04/15 03:43:08;;;;;;;;;;;;;;;;;;109304;1252;59964;-79
2024/04/15 03:45:34;;;;;;;;;;;;;;;;;;109318;1253;60345;-82
2024/04/15 03:48:00;;;;;;;;;;;;;;;;;;109325;1252;59786;-79
2024/04/15 03:50:27;;;;;;;;;;;;;;;;;;109493;1252;59828;-79
2024/04/15 03:52:53;;;;;;;;;;;;;;;;;;109585;1252;59927;-80
2024/04/15 03:55:19;;;;;;;;;;;;;;;;;;109495;1252;59676;-79
2024/04/15 03:57:45;;;;;;;;;;;;;;;;;;109650;1251;59840;-79
2024/04/15 04:00:11;;;;;;;;;;;;;;;;;;109667;1250;59646;-80
2024/04/15 04:02:38;;;;;;;;;;;;;;;;;;109669;1250;60007;-79
2024/04/15 04:05:05;;;;;;;;;;;;;;;;;;109644;1251;59769;-81
2024/04/15 04:07:31;;;;;;;;;;;;;;;;;;109664;1251;59681;-81
2024/04/15 04:09:57;;;;;;;;;;;;;;;;;;109483;1251;59790;-80
2024/04/15 04:12:23;;;;;;;;;;;;;;;;;;109386;1251;60457;-80
2024/04/15 04:14:50;;;;;;;;;;;;;;;;;;109509;1250;60174;-79
2024/04/15 04:17:16;;;;;;;;;;;;;;;;;;109497;1250;60467;-80
2024/04/15 04:19:42;;;;;;;;;;;;;;;;;;109488;1250;60083;-79
2024/04/15 04:22:08;;;;;;;;;;;;;;;;;;109560;1251;59784;-79
2024/04/15 04:24:36;;;;;;;;;;;;;;;;;;109411;1253;59832;-80
2024/04/15 04:27:02;;;;;;;;;;;;;;;;;;109310;1251;59818;-79
2024/04/15 04:29:28;;;;;;;;;;;;;;;;;;109310;1252;59895;-79
2024/04/15 04:31:54;;;;;;;;;;;;;;;;;;109313;1251;60064;-80
2024/04/15 04:34:21;;;;;;;;;;;;;;;;;;109281;1251;60466;-80
2024/04/15 04:36:47;;;;;;;;;;;;;;;;;;109391;1253;60270;-80
2024/04/15 04:39:14;;;;;;;;;;;;;;;;;;109532;1252;59980;-81
2024/04/15 04:41:40;;;;;;;;;;;;;;;;;;109543;1253;59698;-80
2024/04/15 04:44:06;;;;;;;;;;;;;;;;;;109507;1253;59654;-80
2024/04/15 04:46:32;;;;;;;;;;;;;;;;;;109496;1253;59905;-79
2024/04/15 04:48:58;;;;;;;;;;;;;;;;;;109494;1253;59683;-79
2024/04/15 04:51:25;;;;;;;;;;;;;;;;;;109485;1252;59980;-79
2024/04/15 04:53:53;;;;;;;;;;;;;;;;;;109509;1251;60017;-80
2024/04/15 04:56:20;;;;;;;;;;;;;;;;;;109540;1251;59771;-80
2024/04/15 04:58:46;;;;;;;;;;;;;;;;;;109653;1250;59925;-80
2024/04/15 05:01:12;;;;;;;;;;;;;;;;;;109432;1252;59739;-79
2024/04/15 05:03:38;;;;;;;;;;;;;;;;;;109324;1251;59844;-79
2024/04/15 05:06:04;;;;;;;;;;;;;;;;;;109268;1252;60199;-80
2024/04/15 05:08:31;;;;;;;;;;;;;;;;;;109259;1252;60431;-80
2024/04/15 05:10:57;;;;;;;;;;;;;;;;;;109247;1253;60332;-79
2024/04/15 05:13:23;;;;;;;;;;;;;;;;;;109289;1253;59759;-80
2024/04/15 05:15:49;;;;;;;;;;;;;;;;;;109270;1252;62708;-79
2024/04/15 05:18:16;;;;;;;;;;;;;;;;;;109260;1251;59967;-80
2024/04/15 05:20:42;;;;;;;;;;;;;;;;;;109317;1251;60435;-80
2024/04/15 05:23:08;;;;;;;;;;;;;;;;;;109277;1252;59848;-81
2024/04/15 05:25:34;;;;;;;;;;;;;;;;;;109230;1252;60574;-79
2024/04/15 05:28:01;;;;;;;;;;;;;;;;;;109343;1253;59836;-80
2024/04/15 05:30:27;;;;;;;;;;;;;;;;;;109270;1252;60254;-79
2024/04/15 05:32:53;;;;;;;;;;;;;;;;;;109307;1251;60179;-79
2024/04/15 05:35:19;;;;;;;;;;;;;;;;;;109361;1250;59946;-79
2024/04/15 05:37:45;;;;;;;;;;;;;;;;;;109502;1253;59615;-80
2024/04/15 05:40:12;;;;;;;;;;;;;;;;;;109490;1252;59852;-79
2024/04/15 05:42:38;;;;;;;;;;;;;;;;;;109317;1253;60126;-80
2024/04/15 05:45:05;;;;;;;;;;;;;;;;;;109248;1252;59879;-79
2024/04/15 05:47:31;;;;;;;;;;;;;;;;;;109268;1253;59937;-79
2024/04/15 05:49:57;;;;;;;;;;;;;;;;;;109268;1253;60376;-79
2024/04/15 05:52:24;;;;;;;;;;;;;;;;;;109384;1251;60028;-80
2024/04/15 05:54:50;;;;;;;;;;;;;;;;;;109426;1252;59880;-81
2024/04/15 05:57:16;;;;;;;;;;;;;;;;;;109504;1250;60006;-79
2024/04/15 05:59:42;;;;;;;;;;;;;;;;;;109494;1252;59668;-79
2024/04/15 06:02:08;;;;;;;;;;;;;;;;;;109428;1253;60015;-79
2024/04/15 06:04:35;;;;;;;;;;;;;;;;;;109526;1253;59632;-80
2024/04/15 06:07:01;;;;;;;;;;;;;;;;;;109447;1253;59927;-80
2024/04/15 06:09:27;;;;;;;;;;;;;;;;;;109228;1253;59797;-81
2024/04/15 06:11:54;;;;;;;;;;;;;;;;;;109069;1253;260164;-81
2024/04/15 06:14:22;;;;;;;;;;;;;;;;;;109270;1253;60381;-81
2024/04/15 06:16:48;;;;;;;;;;;;;;;;;;109247;1252;60593;-82
2024/04/15 06:19:15;;;;;;;;;;;;;;;;;;109266;1252;60191;-81
2024/04/15 06:21:41;;;;;;;;;;;;;;;;;;109250;1255;61014;-82
2024/04/15 06:24:07;;;;;;;;;;;;;;;;;;109279;1251;59902;-82
2024/04/15 06:26:33;;;;;;;;;;;;;;;;;;109269;1253;59928;-81
2024/04/15 06:28:59;;;;;;;;;;;;;;;;;;109255;1253;61139;-81
2024/04/15 06:31:26;;;;;;;;;;;;;;;;;;109299;1253;60664;-82
2024/04/15 06:33:52;;;;;;;;;;;;;;;;;;109332;1250;59979;-80
2024/04/15 06:36:18;;;;;;;;;;;;;;;;;;109275;1252;60567;-81
2024/04/15 06:38:46;;;;;;;;;;;;;;;;;;109305;1254;60154;-81
2024/04/15 06:41:12;;;;;;;;;;;;;;;;;;109178;1253;59832;-82
2024/04/15 06:43:38;;;;;;;;;;;;;;;;;;109154;1251;59923;-81
2024/04/15 06:46:04;;;;;;;;;;;;;;;;;;109205;1255;60449;-82
2024/04/15 06:48:31;;;;;;;;;;;;;;;;;;109422;1251;59678;-82
2024/04/15 06:50:57;;;;;;;;;;;;;;;;;;109494;1251;59787;-81
2024/04/15 06:53:23;;;;;;;;;;;;;;;;;;109355;1253;59967;-80
2024/04/15 06:55:49;;;;;;;;;;;;;;;;;;109362;1253;59819;-80
2024/04/15 06:58:15;;;;;;;;;;;;;;;;;;109427;1251;59895;-81
2024/04/15 07:00:41;;;;;;;;;;;;;;;;;;109491;1255;59994;-81
2024/04/15 07:03:08;;;;;;;;;;;;;;;;;;109404;1252;59730;-81
2024/04/15 07:05:34;;;;;;;;;;;;;;;;;;109395;1251;60078;-82
2024/04/15 07:08:04;;;;;;;;;;;;;;;;;;109389;1251;59925;-81
2024/04/15 07:10:31;;;;;;;;;;;;;;;;;;109476;1252;59801;-80
2024/04/15 07:12:57;;;;;;;;;;;;;;;;;;109450;1253;62784;-81
2024/04/15 07:15:24;;;;;;;;;;;;;;;;;;109383;1253;60074;-81
2024/04/15 07:17:50;;;;;;;;;;;;;;;;;;109372;1251;59779;-81
2024/04/15 07:20:16;;;;;;;;;;;;;;;;;;109405;1253;59702;-82
2024/04/15 07:22:42;;;;;;;;;;;;;;;;;;109409;1252;59717;-81
2024/04/15 07:25:09;;;;;;;;;;;;;;;;;;109482;1252;59854;-81
2024/04/15 07:27:38;;;;;;;;;;;;;;;;;;109465;1253;59840;-81
2024/04/15 07:30:05;;;;;;;;;;;;;;;;;;109436;1251;60680;-81
2024/04/15 07:32:31;;;;;;;;;;;;;;;;;;109381;1253;59944;-80
2024/04/15 07:34:58;;;;;;;;;;;;;;;;;;109426;1253;59681;-81
2024/04/15 07:37:24;;;;;;;;;;;;;;;;;;109345;1253;59999;-81
2024/04/15 07:39:50;;;;;;;;;;;;;;;;;;109240;1253;60261;-81
2024/04/15 07:42:16;;;;;;;;;;;;;;;;;;109233;1253;60466;-82
2024/04/15 07:44:42;;;;;;;;;;;;;;;;;;109226;1253;59773;-82
2024/04/15 07:47:08;;;;;;;;;;;;;;;;;;109228;1255;61918;-82
2024/04/15 07:49:35;;;;;;;;;;;;;;;;;;109255;1251;60165;-81
2024/04/15 07:52:01;;;;;;;;;;;;;;;;;;109256;1251;60447;-81
2024/04/15 07:54:27;;;;;;;;;;;;;;;;;;109291;1252;59980;-82
2024/04/15 07:56:54;;;;;;;;;;;;;;;;;;109218;1255;59822;-81
2024/04/15 07:59:20;;;;;;;;;;;;;;;;;;109304;1253;60446;-82
2024/04/15 08:01:46;;;;;;;;;;;;;;;;;;109260;1251;60619;-82
2024/04/15 08:04:12;;;;;;;;;;;;;;;;;;109281;1254;60400;-81
2024/04/15 08:06:39;;;;;;;;;;;;;;;;;;109247;1253;60482;-82
2024/04/15 08:09:07;;;;;;;;;;;;;;;;;;109285;1253;60413;-82
2024/04/15 08:11:33;;;;;;;;;;;;;;;;;;109248;1253;62829;-82
2024/04/15 08:13:59;;;;;;;;;;;;;;;;;;109240;1252;60601;-82
2024/04/15 08:16:25;;;;;;;;;;;;;;;;;;109248;1252;60049;-81
2024/04/15 08:18:51;;;;;;;;;;;;;;;;;;109128;1255;60141;-81
2024/04/15 08:21:17;;;;;;;;;;;;;;;;;;109246;1255;61486;-81
2024/04/15 08:23:44;;;;;;;;;;;;;;;;;;109225;1253;60165;-81
2024/04/15 08:26:10;;;;;;;;;;;;;;;;;;109251;1253;60419;-82
2024/04/15 08:28:36;;;;;;;;;;;;;;;;;;109192;1252;60089;-81
2024/04/15 08:31:02;;;;;;;;;;;;;;;;;;109172;1253;60514;-81
2024/04/15 08:33:29;;;;;;;;;;;;;;;;;;109246;1255;60015;-82
2024/04/15 08:35:55;;;;;;;;;;;;;;;;;;109226;1254;59838;-82
2024/04/15 08:38:21;;;;;;;;;;;;;;;;;;109269;1255;60460;-81
2024/04/15 08:40:47;;;;;;;;;;;;;;;;;;109341;1251;59979;-81
2024/04/15 08:43:13;;;;;;;;;;;;;;;;;;109212;1255;59996;-82
2024/04/15 08:45:39;;;;;;;;;;;;;;;;;;109310;1251;60515;-82
2024/04/15 08:48:05;;;;;;;;;;;;;;;;;;109293;1252;60477;-82
2024/04/15 08:50:32;;;;;;;;;;;;;;;;;;109303;1254;60508;-82
2024/04/15 08:52:58;;;;;;;;;;;;;;;;;;109170;1255;60370;-81
2024/04/15 08:55:24;;;;;;;;;;;;;;;;;;109208;1254;59874;-81
2024/04/15 08:57:50;;;;;;;;;;;;;;;;;;109311;1253;60316;-80
2024/04/15 09:00:17;;;;;;;;;;;;;;;;;;109437;1251;59844;-81
2024/04/15 09:02:44;;;;;;;;;;;;;;;;;;109393;1256;59755;-81
2024/04/15 09:05:10;;;;;;;;;;;;;;;;;;109331;1251;59791;-81
2024/04/15 09:07:36;;;;;;;;;;;;;;;;;;109419;1255;59648;-81
2024/04/15 09:10:02;;;;;;;;;;;;;;;;;;109254;1251;61009;-80
2024/04/15 09:12:28;;;;;;;;;;;;;;;;;;109324;1251;60270;-82
2024/04/15 09:14:55;;;;;;;;;;;;;;;;;;109207;1252;59954;-81
2024/04/15 09:17:21;;;;;;;;;;;;;;;;;;109188;1255;59887;-82
2024/04/15 09:19:47;;;;;;;;;;;;;;;;;;109270;1252;59852;-81
2024/04/15 09:22:14;;;;;;;;;;;;;;;;;;109239;1251;59953;-80
2024/04/15 09:24:40;;;;;;;;;;;;;;;;;;109278;1251;60202;-81
2024/04/15 09:27:06;;;;;;;;;;;;;;;;;;109300;1257;60195;-81
2024/04/15 09:29:32;;;;;;;;;;;;;;;;;;109259;1254;60310;-81
2024/04/15 09:31:59;;;;;;;;;;;;;;;;;;109218;1254;60457;-80
2024/04/15 09:34:25;;;;;;;;;;;;;;;;;;109282;1253;60351;-81
2024/04/15 09:36:51;;;;;;;;;;;;;;;;;;109190;1254;60178;-80
2024/04/15 09:39:17;;;;;;;;;;;;;;;;;;109287;1251;61879;-80
2024/04/15 09:41:44;;;;;;;;;;;;;;;;;;109216;1256;60390;-81
2024/04/15 09:44:10;;;;;;;;;;;;;;;;;;109311;1251;60259;-81
2024/04/15 09:46:36;;;;;;;;;;;;;;;;;;109265;1254;60144;-82
2024/04/15 09:49:02;;;;;;;;;;;;;;;;;;109298;1252;61589;-81
2024/04/15 09:51:29;;;;;;;;;;;;;;;;;;109168;1254;60171;-81
2024/04/15 09:53:55;;;;;;;;;;;;;;;;;;109226;1251;60428;-81
2024/04/15 09:56:21;;;;;;;;;;;;;;;;;;109262;1252;60455;-80
2024/04/15 09:58:47;;;;;;;;;;;;;;;;;;109272;1251;60162;-81
2024/04/15 10:01:14;;;;;;;;;;;;;;;;;;109265;1254;60321;-80
2024/04/15 10:03:40;;;;;;;;;;;;;;;;;;109241;1253;60985;-81
2024/04/15 10:06:06;;;;;;;;;;;;;;;;;;109283;1253;59792;-81
2024/04/15 10:08:33;;;;;;;;;;;;;;;;;;109273;1254;60473;-82
2024/04/15 10:10:59;;;;;;;;;;;;;;;;;;109279;1254;60410;-80
2024/04/15 10:13:25;;;;;;;;;;;;;;;;;;109282;1253;60310;-81
2024/04/15 10:15:51;;;;;;;;;;;;;;;;;;109303;1254;60194;-81
2024/04/15 10:18:17;;;;;;;;;;;;;;;;;;109342;1251;60504;-81
2024/04/15 10:20:45;;;;;;;;;;;;;;;;;;109230;1251;61528;-81
2024/04/15 10:23:12;;;;;;;;;;;;;;;;;;109272;1251;60585;-81
2024/04/15 10:25:38;;;;;;;;;;;;;;;;;;109314;1251;60502;-80
2024/04/15 10:28:04;;;;;;;;;;;;;;;;;;108923;1251;60350;-81
2024/04/15 10:30:31;;;;;;;;;;;;;;;;;;109248;1251;59976;-80
2024/04/15 10:32:57;;;;;;;;;;;;;;;;;;109296;1251;60062;-81
2024/04/15 10:35:24;;;;;;;;;;;;;;;;;;109280;1252;59887;-81
2024/04/15 10:37:50;;;;;;;;;;;;;;;;;;109317;1251;60243;-81
2024/04/15 10:40:16;;;;;;;;;;;;;;;;;;109285;1252;59986;-81
2024/04/15 10:42:42;;;;;;;;;;;;;;;;;;109246;1251;60402;-81
2024/04/15 10:45:08;;;;;;;;;;;;;;;;;;109298;1250;60278;-81
2024/04/15 10:47:35;;;;;;;;;;;;;;;;;;109246;1254;61760;-80
2024/04/15 10:50:01;;;;;;;;;;;;;;;;;;109240;1254;60588;-81
2024/04/15 10:52:27;;;;;;;;;;;;;;;;;;109165;1251;60676;-81
2024/04/15 10:54:53;;;;;;;;;;;;;;;;;;109279;1253;60674;-80
2024/04/15 10:57:20;;;;;;;;;;;;;;;;;;109244;1254;60054;-80
2024/04/15 10:59:46;;;;;;;;;;;;;;;;;;109219;1251;60421;-81
2024/04/15 11:02:12;;;;;;;;;;;;;;;;;;109282;1253;59808;-80
2024/04/15 11:04:39;;;;;;;;;;;;;;;;;;109304;1254;59810;-80
2024/04/15 11:07:05;;;;;;;;;;;;;;;;;;109292;1253;60109;-81
2024/04/15 11:09:32;;;;;;;;;;;;;;;;;;109257;1254;60378;-80
2024/04/15 11:11:58;;;;;;;;;;;;;;;;;;109343;1251;59859;-81
2024/04/15 11:14:24;;;;;;;;;;;;;;;;;;109204;1251;59903;-80
2024/04/15 11:16:50;;;;;;;;;;;;;;;;;;109305;1251;60053;-82
2024/04/15 11:19:16;;;;;;;;;;;;;;;;;;109230;1255;60406;-80
2024/04/15 11:21:42;;;;;;;;;;;;;;;;;;109247;1254;60166;-80
2024/04/15 11:24:09;;;;;;;;;;;;;;;;;;109347;1251;60447;-81
2024/04/15 11:26:36;;;;;;;;;;;;;;;;;;109310;1251;60578;-82
2024/04/15 11:29:02;;;;;;;;;;;;;;;;;;109256;1251;60023;-81
2024/04/15 11:31:29;;;;;;;;;;;;;;;;;;109235;1251;60041;-81
2024/04/15 11:33:55;;;;;;;;;;;;;;;;;;109246;1251;60200;-80
2024/04/15 11:36:21;;;;;;;;;;;;;;;;;;109298;1251;59965;-81
2024/04/15 11:38:47;;;;;;;;;;;;;;;;;;109239;1251;59997;-80
2024/04/15 11:41:13;;;;;;;;;;;;;;;;;;109264;1251;59948;-81
2024/04/15 11:43:40;;;;;;;;;;;;;;;;;;109249;1254;59802;-81
2024/04/15 11:46:06;;;;;;;;;;;;;;;;;;109305;1251;60465;-81
2024/04/15 11:48:32;;;;;;;;;;;;;;;;;;109359;1251;60114;-81
2024/04/15 11:50:58;;;;;;;;;;;;;;;;;;109231;1252;60299;-80
2024/04/15 11:53:25;;;;;;;;;;;;;;;;;;109291;1250;60082;-80
2024/04/15 11:55:52;;;;;;;;;;;;;;;;;;109290;1250;59891;-80
2024/04/15 11:58:18;;;;;;;;;;;;;;;;;;109213;1251;60070;-81
2024/04/15 12:00:45;;;;;;;;;;;;;;;;;;109290;1250;60345;-80
2024/04/15 12:03:11;;;;;;;;;;;;;;;;;;109249;1251;60135;-80
2024/04/15 12:05:37;;;;;;;;;;;;;;;;;;109295;1251;61456;-80
2024/04/15 12:08:04;;;;;;;;;;;;;;;;;;109217;1251;59902;-81
2024/04/15 12:10:30;;;;;;;;;;;;;;;;;;109279;1251;60043;-80
2024/04/15 12:12:56;;;;;;;;;;;;;;;;;;109303;1251;59969;-80
2024/04/15 12:15:22;;;;;;;;;;;;;;;;;;109333;1251;59972;-81
2024/04/15 12:17:48;;;;;;;;;;;;;;;;;;109275;1253;60745;-80
2024/04/15 12:20:15;;;;;;;;;;;;;;;;;;109365;1251;60346;-81
2024/04/15 12:22:41;;;;;;;;;;;;;;;;;;109315;1252;59881;-81
2024/04/15 12:25:09;;;;;;;;;;;;;;;;;;109161;1251;59847;-81
2024/04/15 12:27:35;;;;;;;;;;;;;;;;;;109258;1250;60704;-80
2024/04/15 12:30:01;;;;;;;;;;;;;;;;;;109192;1253;59977;-81
2024/04/15 12:32:28;;;;;;;;;;;;;;;;;;109239;1252;60156;-81
2024/04/15 12:34:54;;;;;;;;;;;;;;;;;;109295;1251;60638;-80
2024/04/15 12:37:20;;;;;;;;;;;;;;;;;;109301;1253;60613;-81
2024/04/15 12:39:47;;;;;;;;;;;;;;;;;;109287;1253;60248;-81
2024/04/15 12:42:13;;;;;;;;;;;;;;;;;;109212;1251;59891;-81
2024/04/15 12:44:39;;;;;;;;;;;;;;;;;;109251;1251;60442;-81
2024/04/15 12:47:05;;;;;;;;;;;;;;;;;;109233;1252;60266;-80
2024/04/15 12:49:32;;;;;;;;;;;;;;;;;;109284;1252;60458;-80
2024/04/15 12:51:58;;;;;;;;;;;;;;;;;;109288;1251;60181;-81
2024/04/15 12:54:24;;;;;;;;;;;;;;;;;;109323;1251;60432;-81
2024/04/15 12:56:50;;;;;;;;;;;;;;;;;;109281;1252;59796;-81
2024/04/15 12:59:16;;;;;;;;;;;;;;;;;;109219;1252;60274;-81
2024/04/15 13:01:43;;;;;;;;;;;;;;;;;;109320;1252;60586;-81
2024/04/15 13:04:09;;;;;;;;;;;;;;;;;;109310;1251;61069;-81
2024/04/15 13:06:35;;;;;;;;;;;;;;;;;;109280;1251;59952;-80
2024/04/15 13:09:01;;;;;;;;;;;;;;;;;;109174;1251;60493;-81
2024/04/15 13:11:27;;;;;;;;;;;;;;;;;;109348;1251;60186;-83
2024/04/15 13:13:54;;;;;;;;;;;;;;;;;;109365;1251;61231;-83
2024/04/15 13:16:21;;;;;;;;;;;;;;;;;;109350;1253;60244;-81
2024/04/15 13:18:47;;;;;;;;;;;;;;;;;;109344;1251;59921;-80
2024/04/15 13:21:15;;;;;;;;;;;;;;;;;;109291;1250;59926;-82
2024/04/15 13:23:41;;;;;;;;;;;;;;;;;;109258;1251;59886;-81
2024/04/15 13:26:08;;;;;;;;;;;;;;;;;;109345;1251;60669;-81
2024/04/15 13:28:34;;;;;;;;;;;;;;;;;;109428;1250;59794;-81
2024/04/15 13:31:02;;;;;;;;;;;;;;;;;;109340;1250;60504;-80
2024/04/15 13:33:29;;;;;;;;;;;;;;;;;;109302;1251;60432;-81
2024/04/15 13:35:55;;;;;;;;;;;;;;;;;;109366;1251;59812;-81
2024/04/15 13:38:21;;;;;;;;;;;;;;;;;;109408;1251;60248;-80
2024/04/15 13:40:47;;;;;;;;;;;;;;;;;;109295;1250;60132;-81
2024/04/15 13:43:13;;;;;;;;;;;;;;;;;;109262;1252;60206;-80
2024/04/15 13:45:39;;;;;;;;;;;;;;;;;;109435;1251;60500;-80
2024/04/15 13:48:07;;;;;;;;;;;;;;;;;;109430;1250;60427;-81
2024/04/15 13:50:33;;;;;;;;;;;;;;;;;;109240;1252;59826;-80
2024/04/15 13:52:59;;;;;;;;;;;;;;;;;;109307;1252;59869;-80
2024/04/15 13:55:26;;;;;;;;;;;;;;;;;;109399;1250;59869;-80
2024/04/15 13:57:52;;;;;;;;;;;;;;;;;;109399;1253;60638;-81
2024/04/15 14:00:18;;;;;;;;;;;;;;;;;;109282;1251;60714;-80
2024/04/15 14:02:44;;;;;;;;;;;;;;;;;;109270;1253;60468;-81
2024/04/15 14:05:10;;;;;;;;;;;;;;;;;;109170;1251;60269;-80
2024/04/15 14:07:36;;;;;;;;;;;;;;;;;;109374;1251;60469;-80
2024/04/15 14:10:03;;;;;;;;;;;;;;;;;;109325;1252;59834;-80
2024/04/15 14:12:30;;;;;;;;;;;;;;;;;;109268;1251;60189;-80
2024/04/15 14:14:56;;;;;;;;;;;;;;;;;;109264;1252;60419;-80
2024/04/15 14:17:22;;;;;;;;;;;;;;;;;;109292;1252;60047;-81
2024/04/15 14:19:48;;;;;;;;;;;;;;;;;;109278;1252;60661;-80
2024/04/15 14:22:14;;;;;;;;;;;;;;;;;;109303;1252;60081;-81
2024/04/15 14:24:41;;;;;;;;;;;;;;;;;;109288;1252;60845;-79
2024/04/15 14:27:07;;;;;;;;;;;;;;;;;;109338;1252;60186;-81
2024/04/15 14:29:33;;;;;;;;;;;;;;;;;;109292;1251;60223;-81
2024/04/15 14:31:59;;;;;;;;;;;;;;;;;;109304;1252;60147;-81
2024/04/15 14:34:25;;;;;;;;;;;;;;;;;;109327;1251;60018;-81
2024/04/15 14:36:51;;;;;;;;;;;;;;;;;;109343;1250;60008;-81
2024/04/15 14:39:18;;;;;;;;;;;;;;;;;;109285;1251;60326;-81
2024/04/15 14:41:44;;;;;;;;;;;;;;;;;;109359;1251;59867;-81
2024/04/15 14:44:10;;;;;;;;;;;;;;;;;;109365;1251;59810;-80
2024/04/15 14:46:36;;;;;;;;;;;;;;;;;;109363;1252;60258;-81
2024/04/15 14:49:02;;;;;;;;;;;;;;;;;;109363;1252;60754;-81
2024/04/15 14:51:29;;;;;;;;;;;;;;;;;;109419;1250;60602;-80
2024/04/15 14:53:55;;;;;;;;;;;;;;;;;;109329;1251;60082;-81
2024/04/15 14:56:23;;;;;;;;;;;;;;;;;;109351;1251;59789;-81
2024/04/15 14:58:49;;;;;;;;;;;;;;;;;;109363;1251;61510;-81
2024/04/15 15:01:16;;;;;;;;;;;;;;;;;;109412;1252;60445;-81
2024/04/15 15:03:42;;;;;;;;;;;;;;;;;;109332;1252;60601;-81
2024/04/15 15:06:08;;;;;;;;;;;;;;;;;;109324;1252;59904;-81
2024/04/15 15:08:35;;;;;;;;;;;;;;;;;;109343;1252;59868;-81
2024/04/15 15:11:02;;;;;;;;;;;;;;;;;;109345;1251;59884;-80
2024/04/15 15:13:29;;;;;;;;;;;;;;;;;;109387;1252;59844;-80
2024/04/15 15:15:55;;;;;;;;;;;;;;;;;;109381;1252;59864;-80
2024/04/15 15:18:21;;;;;;;;;;;;;;;;;;109362;1251;60428;-80
2024/04/15 15:20:47;;;;;;;;;;;;;;;;;;109311;1252;59845;-80
2024/04/15 15:23:13;;;;;;;;;;;;;;;;;;109368;1251;59763;-81
2024/04/15 15:25:39;;;;;;;;;;;;;;;;;;109409;1251;59820;-81
2024/04/15 15:28:06;;;;;;;;;;;;;;;;;;109379;1251;60057;-80
2024/04/15 15:30:33;;;;;;;;;;;;;;;;;;109410;1251;60305;-80
2024/04/15 15:32:59;;;;;;;;;;;;;;;;;;109375;1251;60529;-80
2024/04/15 15:35:25;;;;;;;;;;;;;;;;;;109380;1251;59811;-81
2024/04/15 15:37:52;;;;;;;;;;;;;;;;;;109288;1252;61082;-80
2024/04/15 15:40:18;;;;;;;;;;;;;;;;;;109291;1251;59933;-80
2024/04/15 15:42:44;;;;;;;;;;;;;;;;;;109345;1252;59831;-80
2024/04/15 15:45:10;;;;;;;;;;;;;;;;;;109374;1251;60297;-80
2024/04/15 15:47:36;;;;;;;;;;;;;;;;;;109392;1250;60460;-80
2024/04/15 15:50:03;;;;;;;;;;;;;;;;;;109401;1251;59858;-81
2024/04/15 15:52:29;;;;;;;;;;;;;;;;;;109403;1250;59899;-80
2024/04/15 15:54:56;;;;;;;;;;;;;;;;;;109370;1252;60047;-80
2024/04/15 15:57:22;;;;;;;;;;;;;;;;;;109450;1250;62001;-79
2024/04/15 15:59:48;;;;;;;;;;;;;;;;;;109375;1251;59983;-81
2024/04/15 16:02:14;;;;;;;;;;;;;;;;;;109378;1251;60039;-81
2024/04/15 16:04:41;;;;;;;;;;;;;;;;;;109411;1251;60055;-80
2024/04/15 16:07:07;;;;;;;;;;;;;;;;;;109373;1252;60447;-81
2024/04/15 16:09:34;;;;;;;;;;;;;;;;;;109442;1252;59849;-81
2024/04/15 16:12:01;;;;;;;;;;;;;;;;;;109355;1251;59951;-80
2024/04/15 16:14:27;;;;;;;;;;;;;;;;;;109348;1251;60475;-80
2024/04/15 16:16:53;;;;;;;;;;;;;;;;;;109320;1253;59907;-80
2024/04/15 16:19:19;;;;;;;;;;;;;;;;;;109378;1252;59844;-80
2024/04/15 16:21:46;;;;;;;;;;;;;;;;;;109398;1251;60328;-80